createdAt,value
2023-04-17T00:00:08.889Z,100630.07
2023-04-17T00:03:17.142Z,100631.05
2023-04-17T00:06:06.535Z,100631.53
2023-04-17T00:08:54.518Z,100634.24
2023-04-17T00:11:42.460Z,100631.80
2023-04-17T00:14:30.324Z,100633.36
2023-04-17T00:17:18.145Z,100634.05
2023-04-17T00:20:10.269Z,100636.61
2023-04-17T00:22:57.774Z,100637.56
2023-04-17T00:25:45.731Z,100637.45
2023-04-17T00:28:33.966Z,100639.21
2023-04-17T00:31:22.155Z,100640.45
2023-04-17T00:34:10.067Z,100645.59
2023-04-17T00:36:59.258Z,100644.81
2023-04-17T00:39:46.913Z,100644.62
2023-04-17T00:42:34.689Z,100646.25
2023-04-17T00:45:22.517Z,100641.56
2023-04-17T00:48:11.284Z,100646.13
2023-04-17T00:51:02.411Z,100645.69
2023-04-17T00:53:50.498Z,100648.44
2023-04-17T00:56:38.737Z,100649.02
2023-04-17T00:59:28.226Z,100647.90
2023-04-17T01:02:17.471Z,100649.35
2023-04-17T01:05:06.040Z,100647.88
2023-04-17T01:07:57.054Z,100648.48
2023-04-17T01:10:44.986Z,100652.86
2023-04-17T01:13:33.029Z,100649.91
2023-04-17T01:16:20.870Z,100652.02
2023-04-17T01:19:09.175Z,100654.51
2023-04-17T01:21:57.767Z,100651.75
2023-04-17T01:24:45.807Z,100651.26
2023-04-17T01:27:35.328Z,100655.81
2023-04-17T01:30:23.088Z,100659.79
2023-04-17T01:33:21.890Z,100659.66
2023-04-17T01:36:10.064Z,100662.31
2023-04-17T01:38:58.024Z,100661.77
2023-04-17T01:41:46.203Z,100660.54
2023-04-17T01:44:33.750Z,100666.25
2023-04-17T01:47:21.646Z,100662.79
2023-04-17T01:50:11.021Z,100660.77
2023-04-17T01:52:58.639Z,100663.05
2023-04-17T01:55:46.528Z,100665.48
2023-04-17T01:58:34.503Z,100662.30
2023-04-17T02:01:22.116Z,100667.03
2023-04-17T02:04:10.191Z,100667.34
2023-04-17T02:06:58.693Z,100664.76
2023-04-17T02:09:46.484Z,100668.55
2023-04-17T02:12:34.327Z,100668.92
2023-04-17T02:15:22.134Z,100669.71
2023-04-17T02:18:10.168Z,100673.25
2023-04-17T02:20:58.052Z,100671.68
2023-04-17T02:23:45.890Z,100671.86
2023-04-17T02:26:33.928Z,100675.85
2023-04-17T02:29:21.905Z,100673.73
2023-04-17T02:32:09.554Z,100676.11
2023-04-17T02:34:57.393Z,100673.50
2023-04-17T02:37:45.642Z,100678.30
2023-04-17T02:40:33.466Z,100680.31
2023-04-17T02:43:22.613Z,100681.33
2023-04-17T02:46:10.677Z,100682.17
2023-04-17T02:48:58.570Z,100684.60
2023-04-17T02:51:46.382Z,100687.63
2023-04-17T02:54:34.329Z,100685.23
2023-04-17T02:57:23.535Z,100689.52
2023-04-17T03:00:14.994Z,100689.08
2023-04-17T03:03:03.497Z,100690.38
2023-04-17T03:05:51.383Z,100685.61
2023-04-17T03:08:39.442Z,100695.20
2023-04-17T03:11:27.417Z,100698.11
2023-04-17T03:14:15.864Z,100702.87
2023-04-17T03:17:03.596Z,100703.45
2023-04-17T03:19:51.627Z,100701.82
2023-04-17T03:22:39.607Z,100704.11
2023-04-17T03:25:32.673Z,100703.36
2023-04-17T03:28:22.209Z,100708.81
2023-04-17T03:31:11.134Z,100708.02
2023-04-17T03:33:59.695Z,100702.80
2023-04-17T03:36:48.457Z,100709.85
2023-04-17T03:39:37.675Z,100710.44
2023-04-17T03:42:27.420Z,100712.77
2023-04-17T03:45:16.871Z,100715.86
2023-04-17T03:48:05.170Z,100717.38
2023-04-17T03:50:53.727Z,100721.27
2023-04-17T03:53:41.569Z,100725.23
2023-04-17T03:56:30.786Z,100725.48
2023-04-17T03:59:19.327Z,100727.79
2023-04-17T04:02:07.429Z,100729.36
2023-04-17T04:04:56.502Z,100729.39
2023-04-17T04:07:44.967Z,100730.79
2023-04-17T04:10:32.866Z,100732.02
2023-04-17T04:13:20.778Z,100733.28
2023-04-17T04:16:15.846Z,100731.16
2023-04-17T04:19:07.192Z,100731.38
2023-04-17T04:21:56.164Z,100734.88
2023-04-17T04:24:45.175Z,100733.77
2023-04-17T04:27:33.876Z,100734.09
2023-04-17T04:30:21.957Z,100736.11
2023-04-17T04:33:11.422Z,100735.61
2023-04-17T04:36:03.756Z,100739.45
2023-04-17T04:38:52.777Z,100741.23
2023-04-17T04:41:46.488Z,100741.10
2023-04-17T04:44:34.705Z,100744.07
2023-04-17T04:47:23.866Z,100745.62
2023-04-17T04:50:11.854Z,100750.52
2023-04-17T04:52:59.871Z,100749.90
2023-04-17T04:56:00.436Z,100748.66
2023-04-17T04:58:48.610Z,100752.27
2023-04-17T05:01:37.503Z,100755.95
2023-04-17T05:04:25.568Z,100757.46
2023-04-17T05:07:15.698Z,100756.60
2023-04-17T05:10:06.836Z,100757.48
2023-04-17T05:12:56.931Z,100760.16
2023-04-17T05:15:44.915Z,100760.48
2023-04-17T05:18:33.239Z,100761.89
2023-04-17T05:21:21.197Z,100765.29
2023-04-17T05:24:10.557Z,100762.87
2023-04-17T05:26:58.420Z,100764.36
2023-04-17T05:29:46.248Z,100767.55
2023-04-17T05:32:35.184Z,100767.70
2023-04-17T05:35:49.390Z,100768.48
2023-04-17T05:38:37.654Z,100774.82
2023-04-17T05:41:30.796Z,100773.56
2023-04-17T05:44:18.087Z,100777.09
2023-04-17T05:47:06.314Z,100781.03
2023-04-17T05:49:57.599Z,100781.07
2023-04-17T05:52:48.390Z,100790.00
2023-04-17T05:55:36.988Z,100793.59
2023-04-17T05:58:26.550Z,100793.98
2023-04-17T06:01:22.609Z,100797.18
2023-04-17T06:04:13.171Z,100804.05
2023-04-17T06:07:03.152Z,100805.11
2023-04-17T06:09:51.004Z,100803.98
2023-04-17T06:12:38.919Z,100805.34
2023-04-17T06:15:28.598Z,100806.88
2023-04-17T06:18:17.674Z,100811.41
2023-04-17T06:21:09.739Z,100812.86
2023-04-17T06:23:57.366Z,100811.02
2023-04-17T06:26:45.167Z,100811.99
2023-04-17T06:29:33.376Z,100815.52
2023-04-17T06:32:21.865Z,100814.66
2023-04-17T06:35:13.262Z,100817.48
2023-04-17T06:38:05.576Z,100819.77
2023-04-17T06:40:53.359Z,100815.44
2023-04-17T06:43:41.129Z,100816.94
2023-04-17T06:46:35.374Z,100817.79
2023-04-17T06:49:25.235Z,100818.42
2023-04-17T06:52:12.897Z,100819.05
2023-04-17T06:55:00.635Z,100820.16
2023-04-17T06:57:48.556Z,100821.74
2023-04-17T07:00:36.439Z,100830.59
2023-04-17T07:03:24.367Z,100835.38
2023-04-17T07:06:12.766Z,100836.04
2023-04-17T07:09:01.781Z,100837.67
2023-04-17T07:11:49.995Z,100840.27
2023-04-17T07:14:38.403Z,100843.32
2023-04-17T07:17:27.457Z,100844.61
2023-04-17T07:20:15.131Z,100847.80
2023-04-17T07:23:02.656Z,100849.96
2023-04-17T07:25:51.103Z,100851.92
2023-04-17T07:28:40.012Z,100860.94
2023-04-17T07:31:28.637Z,100860.52
2023-04-17T07:34:17.862Z,100866.17
2023-04-17T07:37:06.228Z,100868.25
2023-04-17T07:39:54.133Z,100873.05
2023-04-17T07:42:42.130Z,100875.83
2023-04-17T07:45:30.384Z,100875.02
2023-04-17T07:48:19.281Z,100880.95
2023-04-17T07:51:07.874Z,100881.33
2023-04-17T07:53:55.930Z,100879.95
2023-04-17T07:56:46.734Z,100885.92
2023-04-17T07:59:36.371Z,100888.45
2023-04-17T08:02:24.172Z,100890.98
2023-04-17T08:05:12.196Z,100892.73
2023-04-17T08:08:02.368Z,100894.25
2023-04-17T08:10:50.796Z,100896.75
2023-04-17T08:13:38.762Z,100892.95
2023-04-17T08:16:26.648Z,100906.27
2023-04-17T08:19:14.685Z,100906.15
2023-04-17T08:22:05.024Z,100910.64
2023-04-17T08:24:58.067Z,100911.36
2023-04-17T08:27:46.384Z,100915.89
2023-04-17T08:30:38.716Z,100920.33
2023-04-17T08:33:27.233Z,100916.05
2023-04-17T08:36:15.093Z,100924.56
2023-04-17T08:39:02.902Z,100923.25
2023-04-17T08:42:07.380Z,100932.05
2023-04-17T08:45:06.435Z,100934.80
2023-04-17T08:47:54.231Z,100932.14
2023-04-17T08:50:47.235Z,100940.34
2023-04-17T08:53:35.031Z,100941.20
2023-04-17T08:56:23.112Z,100942.36
2023-04-17T08:59:11.111Z,100941.95
2023-04-17T09:02:05.066Z,100942.77
2023-04-17T09:04:53.140Z,100945.03
2023-04-17T09:07:44.498Z,100945.73
2023-04-17T09:10:46.777Z,100948.00
2023-04-17T09:13:40.308Z,100950.45
2023-04-17T09:16:29.257Z,100954.55
2023-04-17T09:19:16.969Z,100956.86
2023-04-17T09:22:23.264Z,100960.27
2023-04-17T09:25:23.308Z,100959.50
2023-04-17T09:28:14.870Z,100962.08
2023-04-17T09:31:18.666Z,100960.57
2023-04-17T09:34:08.868Z,100959.10
2023-04-17T09:36:56.886Z,100962.15
2023-04-17T09:40:02.261Z,100961.12
2023-04-17T09:43:01.304Z,100973.69
2023-04-17T09:45:49.010Z,100976.13
2023-04-17T09:48:36.851Z,100982.70
2023-04-17T09:51:26.395Z,100981.44
2023-04-17T09:54:16.181Z,100979.08
2023-04-17T09:57:08.595Z,100981.94
2023-04-17T10:00:01.423Z,100985.58
2023-04-17T10:02:52.616Z,100986.21
2023-04-17T10:05:40.530Z,100982.23
2023-04-17T10:08:28.922Z,100985.10
2023-04-17T10:11:16.824Z,100990.02
2023-04-17T10:14:20.845Z,100987.45
2023-04-17T10:17:32.504Z,100985.69
2023-04-17T10:20:23.244Z,100983.98
2023-04-17T10:23:36.232Z,100984.28
2023-04-17T10:26:29.953Z,100983.08
2023-04-17T10:29:18.364Z,100986.17
2023-04-17T10:32:16.343Z,100988.80
2023-04-17T10:35:16.148Z,100986.10
2023-04-17T10:38:08.950Z,100988.52
2023-04-17T10:40:58.101Z,100983.99
2023-04-17T10:43:47.333Z,100989.47
2023-04-17T10:46:47.883Z,100988.65
2023-04-17T10:49:56.036Z,100992.66
2023-04-17T10:52:45.572Z,100993.35
2023-04-17T10:55:33.640Z,100991.04
2023-04-17T10:58:22.032Z,100993.52
2023-04-17T11:01:19.938Z,100994.34
2023-04-17T11:04:09.379Z,100993.33
2023-04-17T11:06:57.658Z,100993.08
2023-04-17T11:09:52.010Z,100997.02
2023-04-17T11:12:39.875Z,100999.26
2023-04-17T11:15:34.087Z,100997.34
2023-04-17T11:18:22.512Z,100997.00
2023-04-17T11:21:13.183Z,100999.59
2023-04-17T11:24:03.359Z,101001.24
2023-04-17T11:26:51.586Z,100999.90
2023-04-17T11:29:39.044Z,101003.59
2023-04-17T11:32:27.405Z,101009.79
2023-04-17T11:35:14.827Z,101009.88
2023-04-17T11:38:14.585Z,101011.88
2023-04-17T11:41:02.990Z,101006.55
2023-04-17T11:43:52.091Z,101010.73
2023-04-17T11:46:40.066Z,101012.60
2023-04-17T11:49:29.587Z,101014.95
2023-04-17T11:52:17.994Z,101015.19
2023-04-17T11:55:09.113Z,101011.16
2023-04-17T11:58:02.439Z,101016.06
2023-04-17T12:01:06.575Z,101017.67
2023-04-17T12:03:59.786Z,101023.52
2023-04-17T12:06:47.594Z,101027.80
2023-04-17T12:09:36.703Z,101030.34
2023-04-17T12:12:24.638Z,101025.16
2023-04-17T12:15:12.520Z,101027.05
2023-04-17T12:18:00.277Z,101024.19
2023-04-17T12:20:48.709Z,101026.80
2023-04-17T12:23:36.798Z,101025.75
2023-04-17T12:26:28.632Z,101024.13
2023-04-17T12:29:17.695Z,101027.17
2023-04-17T12:32:05.786Z,101023.96
2023-04-17T12:34:53.376Z,101023.89
2023-04-17T12:37:42.511Z,101022.73
2023-04-17T12:40:30.502Z,101021.36
2023-04-17T12:43:18.564Z,101020.41
2023-04-17T12:46:06.131Z,101022.48
2023-04-17T12:48:59.342Z,101019.66
2023-04-17T12:51:47.400Z,101022.81
2023-04-17T12:54:35.549Z,101030.25
2023-04-17T12:57:23.021Z,101024.10
2023-04-17T13:00:11.338Z,101034.30
2023-04-17T13:02:59.510Z,101032.26
2023-04-17T13:05:49.724Z,101039.42
2023-04-17T13:08:37.554Z,101039.11
2023-04-17T13:11:25.952Z,101044.46
2023-04-17T13:14:15.370Z,101045.88
2023-04-17T13:17:03.385Z,101044.52
2023-04-17T13:19:52.050Z,101042.87
2023-04-17T13:22:40.256Z,101035.70
2023-04-17T13:25:29.601Z,101035.87
2023-04-17T13:28:17.186Z,101035.09
2023-04-17T13:31:05.223Z,101037.02
2023-04-17T13:33:53.148Z,101035.92
2023-04-17T13:36:42.241Z,101035.29
2023-04-17T13:39:30.376Z,101036.74
2023-04-17T13:42:19.972Z,101035.09
2023-04-17T13:45:08.737Z,101033.23
2023-04-17T13:47:56.533Z,101032.98
2023-04-17T13:50:44.302Z,101038.33
2023-04-17T13:53:32.106Z,101036.72
2023-04-17T13:56:23.611Z,101037.98
2023-04-17T13:59:12.061Z,101039.23
2023-04-17T14:02:04.142Z,101039.46
2023-04-17T14:04:52.544Z,101039.74
2023-04-17T14:07:40.850Z,101040.27
2023-04-17T14:10:28.548Z,101035.69
2023-04-17T14:13:16.750Z,101033.27
2023-04-17T14:16:06.007Z,101037.05
2023-04-17T14:18:53.979Z,101036.75
2023-04-17T14:21:42.027Z,101038.35
2023-04-17T14:24:30.102Z,101038.91
2023-04-17T14:27:17.910Z,101040.27
2023-04-17T14:30:19.423Z,101040.49
2023-04-17T14:33:25.291Z,101040.88
2023-04-17T14:36:30.158Z,101040.12
2023-04-17T14:39:36.006Z,101039.79
2023-04-17T14:42:23.935Z,101042.09
2023-04-17T14:45:13.329Z,101046.00
2023-04-17T14:48:01.343Z,101048.23
2023-04-17T14:50:50.505Z,101044.41
2023-04-17T14:53:38.242Z,101047.46
2023-04-17T14:56:28.731Z,101046.60
2023-04-17T14:59:16.343Z,101047.89
2023-04-17T15:02:07.491Z,101046.41
2023-04-17T15:04:55.681Z,101043.20
2023-04-17T15:07:43.704Z,101040.44
2023-04-17T15:10:40.505Z,101040.11
2023-04-17T15:13:36.066Z,101045.94
2023-04-17T15:16:23.601Z,101045.63
2023-04-17T15:19:11.956Z,101048.61
2023-04-17T15:21:59.888Z,101046.65
2023-04-17T15:24:47.669Z,101052.95
2023-04-17T15:27:35.504Z,101051.98
2023-04-17T15:30:23.283Z,101051.98
2023-04-17T15:33:12.740Z,101051.17
2023-04-17T15:36:02.649Z,101050.27
2023-04-17T15:38:50.549Z,101053.47
2023-04-17T15:41:41.433Z,101047.88
2023-04-17T15:44:29.995Z,101049.98
2023-04-17T15:47:17.588Z,101052.52
2023-04-17T15:50:06.012Z,101052.17
2023-04-17T15:52:53.539Z,101048.95
2023-04-17T15:55:43.840Z,101051.20
2023-04-17T15:58:31.686Z,101057.58
2023-04-17T16:01:19.485Z,101061.09
2023-04-17T16:04:07.284Z,101059.52
2023-04-17T16:06:55.611Z,101063.52
2023-04-17T16:09:44.718Z,101061.30
2023-04-17T16:12:32.274Z,101067.20
2023-04-17T16:15:19.906Z,101065.04
2023-04-17T16:18:08.293Z,101067.41
2023-04-17T16:20:55.935Z,101070.00
2023-04-17T16:23:45.933Z,101066.06
2023-04-17T16:26:33.768Z,101068.18
2023-04-17T16:29:22.349Z,101067.41
2023-04-17T16:32:12.043Z,101064.81
2023-04-17T16:34:59.629Z,101067.31
2023-04-17T16:37:47.337Z,101070.23
2023-04-17T16:40:35.097Z,101066.67
2023-04-17T16:43:23.445Z,101071.73
2023-04-17T16:46:22.213Z,101066.77
2023-04-17T16:49:16.482Z,101067.77
2023-04-17T16:52:05.675Z,101067.67
2023-04-17T16:54:53.642Z,101063.89
2023-04-17T16:57:43.899Z,101069.21
2023-04-17T17:00:32.257Z,101070.30
2023-04-17T17:03:19.746Z,101075.82
2023-04-17T17:06:07.546Z,101076.80
2023-04-17T17:08:55.555Z,101084.90
2023-04-17T17:11:43.112Z,101086.93
2023-04-17T17:14:30.913Z,101091.86
2023-04-17T17:17:19.843Z,101098.42
2023-04-17T17:20:08.983Z,101100.10
2023-04-17T17:22:56.838Z,101099.70
2023-04-17T17:28:37.494Z,101104.20
2023-04-17T17:31:24.594Z,101106.48
2023-04-17T17:34:25.407Z,101107.98
2023-04-17T17:37:13.132Z,101113.78
2023-04-17T17:40:00.115Z,101110.05
2023-04-17T17:42:47.219Z,101113.59
2023-04-17T17:45:33.926Z,101113.63
2023-04-17T17:48:20.952Z,101115.61
2023-04-17T17:51:08.085Z,101119.64
2023-04-17T17:53:57.424Z,101123.75
2023-04-17T17:56:45.590Z,101128.11
2023-04-17T17:59:32.533Z,101127.80
2023-04-17T18:02:19.499Z,101122.98
2023-04-17T18:05:06.541Z,101123.39
2023-04-17T18:07:53.440Z,101127.20
2023-04-17T18:10:40.050Z,101126.90
2023-04-17T18:13:26.932Z,101130.48
2023-04-17T18:16:13.965Z,101126.59
2023-04-17T18:19:03.273Z,101131.06
2023-04-17T18:21:49.419Z,101128.11
2023-04-17T18:24:37.360Z,101130.08
2023-04-17T18:27:27.393Z,101127.55
2023-04-17T18:30:16.250Z,101131.30
2023-04-17T18:33:04.894Z,101123.98
2023-04-17T18:35:53.602Z,101130.58
2023-04-17T18:38:40.866Z,101131.86
2023-04-17T18:41:29.690Z,101136.23
2023-04-17T18:44:17.241Z,101133.84
2023-04-17T18:47:03.454Z,101133.58
2023-04-17T18:49:53.112Z,101133.98
2023-04-17T18:52:47.635Z,101137.36
2023-04-17T18:55:37.820Z,101137.80
2023-04-17T18:58:24.253Z,101135.48
2023-04-17T19:01:11.082Z,101141.64
2023-04-17T19:03:58.042Z,101140.41
2023-04-17T19:06:47.955Z,101145.80
2023-04-17T19:09:37.413Z,101147.96
2023-04-17T19:12:23.784Z,101144.89
2023-04-17T19:15:11.919Z,101143.74
2023-04-17T19:18:09.315Z,101146.63
2023-04-17T19:20:56.472Z,101148.67
2023-04-17T19:23:43.497Z,101146.98
2023-04-17T19:26:33.140Z,101151.98
2023-04-17T19:29:23.288Z,101150.08
2023-04-17T19:32:14.353Z,101152.42
2023-04-17T19:35:04.457Z,101154.05
2023-04-17T19:37:52.661Z,101152.89
2023-04-17T19:40:40.091Z,101155.36
2023-04-17T19:43:27.181Z,101155.33
2023-04-17T19:46:14.230Z,101157.13
2023-04-17T19:49:01.659Z,101153.20
2023-04-17T19:51:50.101Z,101156.16
2023-04-17T19:54:36.441Z,101154.90
2023-04-17T19:57:23.163Z,101157.02
2023-04-17T20:00:12.527Z,101155.67
2023-04-17T20:03:04.066Z,101154.05
2023-04-17T20:05:50.900Z,101151.48
2023-04-17T20:08:37.209Z,101152.50
2023-04-17T20:11:24.595Z,101148.60
2023-04-17T20:14:14.076Z,101148.21
2023-04-17T20:17:00.328Z,101146.21
2023-04-17T20:19:46.861Z,101145.42
2023-04-17T20:22:33.270Z,101144.79
2023-04-17T20:25:20.011Z,101142.23
2023-04-17T20:28:07.207Z,101133.59
2023-04-17T20:30:55.403Z,101139.05
2023-04-17T20:33:43.167Z,101137.48
2023-04-17T20:36:29.681Z,101136.72
2023-04-17T20:39:16.332Z,101136.71
2023-04-17T20:42:03.074Z,101135.02
2023-04-17T20:44:50.634Z,101136.50
2023-04-17T20:47:55.354Z,101138.70
2023-04-17T20:50:43.960Z,101140.01
2023-04-17T20:53:30.550Z,101141.05
2023-04-17T20:56:17.085Z,101139.60
2023-04-17T20:59:03.290Z,101144.78
2023-04-17T21:01:52.286Z,101145.65
2023-04-17T21:04:40.833Z,101151.38
2023-04-17T21:07:27.154Z,101144.13
2023-04-17T21:10:13.818Z,101149.45
2023-04-17T21:13:00.490Z,101147.77
2023-04-17T21:15:48.157Z,101152.13
2023-04-17T21:18:34.756Z,101152.05
2023-04-17T21:21:20.922Z,101152.84
2023-04-17T21:24:08.512Z,101156.65
2023-04-17T21:27:00.945Z,101156.98
2023-04-17T21:29:47.746Z,101158.38
2023-04-17T21:32:34.747Z,101155.99
2023-04-17T21:35:21.670Z,101153.72
2023-04-17T21:38:13.217Z,101155.63
2023-04-17T21:41:08.424Z,101159.84
2023-04-17T21:43:57.859Z,101159.98
2023-04-17T21:46:45.614Z,101160.77
2023-04-17T21:49:32.394Z,101163.84
2023-04-17T21:52:19.098Z,101166.05
2023-04-17T21:55:08.042Z,101164.23
2023-04-17T21:57:54.334Z,101161.98
2023-04-17T22:00:41.775Z,101166.06
2023-04-17T22:03:28.351Z,101162.21
2023-04-17T22:06:15.254Z,101162.48
2023-04-17T22:09:04.210Z,101161.23
2023-04-17T22:11:50.457Z,101164.05
2023-04-17T22:14:37.560Z,101157.43
2023-04-17T22:17:25.169Z,101160.63
2023-04-17T22:20:13.566Z,101159.40
2023-04-17T22:23:00.362Z,101162.08
2023-04-17T22:25:48.415Z,101165.98
2023-04-17T22:28:34.955Z,101166.17
2023-04-17T22:31:21.665Z,101161.95
2023-04-17T22:34:08.361Z,101169.16
2023-04-17T22:36:54.806Z,101175.21
2023-04-17T22:39:41.567Z,101169.63
2023-04-17T22:42:28.483Z,101170.90
2023-04-17T22:45:15.427Z,101175.80
2023-04-17T22:48:02.486Z,101173.45
2023-04-17T22:50:49.814Z,101169.14
2023-04-17T22:53:37.985Z,101169.45
2023-04-17T22:56:24.550Z,101170.96
2023-04-17T22:59:11.393Z,101173.94
2023-04-17T23:01:58.442Z,101175.40
2023-04-17T23:04:45.963Z,101174.52
2023-04-17T23:07:32.716Z,101175.96
2023-04-17T23:10:21.425Z,101175.46
2023-04-17T23:13:07.726Z,101176.55
2023-04-17T23:15:54.409Z,101178.27
2023-04-17T23:18:41.307Z,101177.60
2023-04-17T23:21:27.796Z,101174.96
2023-04-17T23:24:16.082Z,101171.41
2023-04-17T23:27:02.518Z,101171.39
2023-04-17T23:29:49.138Z,101168.45
2023-04-17T23:32:35.776Z,101169.75
2023-04-17T23:35:22.446Z,101171.25
2023-04-17T23:38:10.160Z,101172.78
2023-04-17T23:40:56.815Z,101174.36
2023-04-17T23:43:42.886Z,101171.96
2023-04-17T23:46:29.337Z,101171.14
2023-04-17T23:49:16.156Z,101174.36
2023-04-17T23:52:03.186Z,101175.08
2023-04-17T23:54:50.106Z,101174.52
2023-04-17T23:57:37.380Z,101177.47
